Time;durP1;ratioP1;P1;durP2;ratioP2;P2;SDS_P1;SDS_P2;PMS_P1;PMS_P2;Temp;Humidity;BMP_temperature;BMP_pressure;BME280_temperature;BME280_humidity;BME280_pressure;Samples;Min_cycle;Max_cycle;Signal;HPM_P1;HPM_P2
2021/09/20 00:01:17;;;;;;;6.13;4.32;;;;;;;11.33;66.38;100782.97;8718535;33;22139;-74
2021/09/20 00:06:20;;;;;;;9.50;4.63;;;;;;;11.26;67.62;100785.25;8717601;33;20229;-74
2021/09/20 00:11:25;;;;;;;7.32;4.70;;;;;;;11.13;67.72;100789.88;8718177;33;20194;-74
2021/09/20 00:16:28;;;;;;;6.30;4.63;;;;;;;11.09;67.99;100791.06;8717101;33;20233;-74
2021/09/20 00:21:31;;;;;;;7.63;5.00;;;;;;;10.98;68.50;100792.72;8717276;33;20148;-74
2021/09/20 00:26:36;;;;;;;7.38;4.70;;;;;;;10.96;68.68;100788.44;8717478;33;20675;-74
2021/09/20 00:31:39;;;;;;;11.15;5.05;;;;;;;10.99;68.95;100775.63;8715972;33;20195;-75
2021/09/20 00:36:42;;;;;;;13.85;5.13;;;;;;;10.98;69.27;100768.53;8716924;33;20183;-74
2021/09/20 00:41:47;;;;;;;8.57;4.90;;;;;;;10.92;69.11;100774.41;8717022;33;21262;-74
2021/09/20 00:46:49;;;;;;;7.88;4.95;;;;;;;10.74;68.31;100779.31;8716690;33;20221;-74
2021/09/20 00:51:53;;;;;;;8.70;4.82;;;;;;;10.76;68.11;100784.59;8717006;33;20656;-74
2021/09/20 00:56:58;;;;;;;7.47;4.90;;;;;;;10.84;68.32;100774.97;8716293;33;20262;-74
2021/09/20 01:02:01;;;;;;;8.77;5.03;;;;;;;10.90;68.63;100772.78;8716782;33;20197;-74
2021/09/20 01:07:04;;;;;;;8.30;4.50;;;;;;;10.92;68.96;100779.78;8716147;33;20954;-74
2021/09/20 01:12:09;;;;;;;10.45;5.35;;;;;;;10.94;68.86;100776.94;8716739;33;20712;-74
2021/09/20 01:17:13;;;;;;;8.38;5.10;;;;;;;11.01;68.92;100780.88;8715572;33;20250;-74
2021/09/20 01:22:19;;;;;;;8.35;5.30;;;;;;;11.01;68.49;100783.59;8716116;33;20306;-74
2021/09/20 01:27:24;;;;;;;9.35;4.78;;;;;;;11.01;68.75;100783.59;8715807;33;20512;-74
2021/09/20 01:32:28;;;;;;;7.70;4.97;;;;;;;10.97;69.21;100792.84;8715711;33;21643;-74
2021/09/20 01:37:31;;;;;;;7.55;4.75;;;;;;;10.88;68.83;100798.91;8716133;33;20152;-74
2021/09/20 01:42:35;;;;;;;7.35;5.00;;;;;;;10.91;68.94;100794.16;8715400;33;20989;-74
2021/09/20 01:47:39;;;;;;;8.73;5.07;;;;;;;10.95;68.91;100790.28;8715398;33;20243;-75
2021/09/20 01:52:42;;;;;;;8.15;5.40;;;;;;;11.00;68.10;100785.41;8715225;33;20186;-75
2021/09/20 01:57:47;;;;;;;7.88;5.35;;;;;;;11.02;67.70;100790.66;8715283;33;20703;-74
2021/09/20 02:02:50;;;;;;;7.82;5.00;;;;;;;11.01;67.45;100787.13;8715355;33;20237;-75
2021/09/20 02:07:53;;;;;;;7.70;4.93;;;;;;;11.00;68.57;100787.25;8715189;33;20180;-74
2021/09/20 02:12:58;;;;;;;8.68;5.68;;;;;;;11.00;68.62;100790.78;8715002;33;20699;-74
2021/09/20 02:18:01;;;;;;;7.80;4.80;;;;;;;11.02;68.53;100786.13;8713803;33;20244;-74
2021/09/20 02:23:03;;;;;;;8.70;5.35;;;;;;;11.05;68.03;100785.03;8718222;33;20191;-74
2021/09/20 02:28:08;;;;;;;8.18;5.22;;;;;;;11.01;68.13;100784.44;8719844;33;20667;-74
2021/09/20 02:33:11;;;;;;;8.38;5.75;;;;;;;11.00;68.31;100781.88;8719295;33;20399;-74
2021/09/20 02:38:14;;;;;;;8.48;6.18;;;;;;;10.99;68.20;100788.22;8719610;33;20452;-74
2021/09/20 02:43:19;;;;;;;9.40;6.22;;;;;;;10.97;68.34;100785.66;8719721;33;20699;-74
2021/09/20 02:48:22;;;;;;;10.55;5.82;;;;;;;11.01;68.14;100789.81;8719494;33;20184;-75
2021/09/20 02:53:25;;;;;;;9.40;5.47;;;;;;;11.04;68.47;100794.09;8719158;33;21048;-74
2021/09/20 02:58:29;;;;;;;7.25;5.63;;;;;;;11.04;69.08;100791.41;8719472;33;20412;-74
2021/09/20 03:03:33;;;;;;;7.60;5.50;;;;;;;11.01;69.23;100803.25;8719106;33;20187;-74
2021/09/20 03:08:36;;;;;;;8.25;4.93;;;;;;;10.98;69.89;100808.84;8718944;33;21429;-75
2021/09/20 03:13:40;;;;;;;8.95;5.45;;;;;;;10.92;70.16;100809.34;8718649;33;20180;-74
2021/09/20 03:18:43;;;;;;;8.75;5.97;;;;;;;10.86;70.19;100804.44;8719089;33;21076;-75
2021/09/20 03:23:47;;;;;;;8.02;5.30;;;;;;;10.86;69.68;100804.44;8718654;33;20235;-75
2021/09/20 03:28:51;;;;;;;8.55;5.25;;;;;;;10.87;69.27;100810.66;8718631;33;20449;-74
2021/09/20 03:33:54;;;;;;;8.95;5.15;;;;;;;10.87;68.90;100808.81;8718069;33;20184;-74
2021/09/20 03:38:58;;;;;;;9.68;5.47;;;;;;;10.89;68.77;100803.31;8718557;33;20187;-75
2021/09/20 03:44:02;;;;;;;8.25;5.30;;;;;;;10.90;68.30;100808.59;8717960;33;20186;-74
2021/09/20 03:49:05;;;;;;;7.63;5.93;;;;;;;10.87;67.68;100806.13;8717872;33;20494;-75
2021/09/20 03:54:08;;;;;;;10.20;6.30;;;;;;;10.82;68.25;100813.69;8717762;33;21244;-74
2021/09/20 03:59:13;;;;;;;11.52;5.47;;;;;;;10.84;68.13;100823.34;8717856;33;20617;-74
2021/09/20 04:04:16;;;;;;;9.50;5.97;;;;;;;10.86;68.19;100830.41;8717567;33;20280;-74
2021/09/20 04:09:21;;;;;;;8.57;6.25;;;;;;;10.85;68.38;100829.56;8717848;33;20125;-74
2021/09/20 04:14:25;;;;;;;10.18;6.30;;;;;;;10.86;68.48;100828.63;8717074;33;20183;-74
2021/09/20 04:19:28;;;;;;;7.75;5.82;;;;;;;10.86;68.54;100833.09;8717787;33;20184;-75
2021/09/20 04:24:31;;;;;;;10.52;6.03;;;;;;;10.86;68.48;100825.03;8738767;33;20191;-74
2021/09/20 04:29:36;;;;;;;8.40;5.93;;;;;;;10.83;68.83;100836.88;8717350;33;20260;-74
2021/09/20 04:34:39;;;;;;;10.45;5.95;;;;;;;10.81;69.06;100838.84;8717505;33;20282;-74
2021/09/20 04:39:42;;;;;;;8.60;5.43;;;;;;;10.79;69.22;100832.72;8717704;33;21315;-74
2021/09/20 04:44:47;;;;;;;9.85;5.95;;;;;;;10.80;69.20;100848.72;8716437;33;20179;-74
2021/09/20 04:49:50;;;;;;;9.90;6.00;;;;;;;10.82;69.36;100852.16;8716945;33;20199;-74
2021/09/20 04:54:53;;;;;;;13.23;5.97;;;;;;;10.83;69.42;100859.25;8716390;33;20183;-74
2021/09/20 04:59:58;;;;;;;11.05;6.57;;;;;;;10.84;69.69;100860.97;8717239;33;20424;-74
2021/09/20 05:05:01;;;;;;;10.82;6.28;;;;;;;10.84;69.79;100869.03;8716469;33;20194;-74
2021/09/20 05:10:04;;;;;;;7.35;5.13;;;;;;;10.86;69.78;100870.72;8716881;33;20192;-74
2021/09/20 05:15:12;;;;;;;9.48;6.05;;;;;;;10.86;69.67;100877.00;8716395;33;20195;-74
2021/09/20 05:20:17;;;;;;;10.75;6.65;;;;;;;10.88;69.67;100883.09;8716970;33;20175;-75
2021/09/20 05:25:22;;;;;;;10.93;6.05;;;;;;;10.91;69.78;100882.00;8716656;33;20543;-74
2021/09/20 05:30:26;;;;;;;10.98;5.60;;;;;;;10.92;69.79;100889.97;8716569;33;20188;-75
2021/09/20 05:35:29;;;;;;;8.55;6.03;;;;;;;10.93;69.84;100894.38;8716073;33;20452;-75
2021/09/20 05:40:33;;;;;;;9.93;5.75;;;;;;;10.97;70.14;100892.28;8715890;33;20471;-75
2021/09/20 05:45:38;;;;;;;6.85;5.00;;;;;;;11.01;70.05;100899.16;8716034;33;20159;-74
2021/09/20 05:50:41;;;;;;;7.78;5.50;;;;;;;11.05;69.70;100901.53;8716764;33;20219;-74
2021/09/20 05:55:44;;;;;;;8.38;5.70;;;;;;;11.12;69.08;100903.75;8718217;33;21460;-74
2021/09/20 06:00:50;;;;;;;14.45;6.68;;;;;;;11.20;68.98;100917.50;8721331;33;20412;-74
2021/09/20 06:05:53;;;;;;;7.68;5.45;;;;;;;11.27;68.64;100914.25;8721348;33;20809;-74
2021/09/20 06:10:56;;;;;;;12.27;5.38;;;;;;;11.28;68.11;100910.56;8721014;33;20140;-74
2021/09/20 06:16:01;;;;;;;6.97;5.07;;;;;;;11.35;68.13;100921.72;8719223;33;20175;-74
2021/09/20 06:21:04;;;;;;;11.13;5.20;;;;;;;11.40;68.15;100926.75;8720724;33;20195;-74
2021/09/20 06:26:08;;;;;;;7.70;4.55;;;;;;;11.43;68.04;100924.66;8713461;33;20234;-74
2021/09/20 06:31:12;;;;;;;6.07;4.50;;;;;;;11.59;67.71;100931.59;8691049;33;20192;-74
2021/09/20 06:36:15;;;;;;;3.65;2.95;;;;;;;11.66;67.96;100938.22;8711081;33;21620;-74
2021/09/20 06:41:19;;;;;;;9.35;4.70;;;;;;;11.98;67.48;100941.09;8720545;33;20148;-73
2021/09/20 06:46:23;;;;;;;6.20;4.22;;;;;;;12.08;65.63;100942.09;8719822;33;20654;-73
2021/09/20 06:51:27;;;;;;;6.18;4.50;;;;;;;12.25;65.42;100943.44;8719948;33;20163;-72
2021/09/20 06:56:30;;;;;;;7.97;3.95;;;;;;;12.42;64.71;100941.28;8719646;33;21286;-72
2021/09/20 07:01:35;;;;;;;6.05;4.32;;;;;;;12.49;64.12;100947.91;8719764;33;20183;-72
2021/09/20 07:06:38;;;;;;;5.30;4.32;;;;;;;12.60;63.45;100951.44;8719793;33;20715;-72
2021/09/20 07:11:42;;;;;;;4.10;3.28;;;;;;;12.80;63.21;100948.97;8719695;33;20365;-72
2021/09/20 07:16:47;;;;;;;5.95;3.53;;;;;;;12.95;61.97;100958.50;8718956;33;20141;-72
2021/09/20 07:21:51;;;;;;;4.75;3.20;;;;;;;12.88;61.91;100956.44;8720030;33;20961;-73
2021/09/20 07:26:55;;;;;;;4.47;3.13;;;;;;;13.03;61.88;100953.34;8718920;33;20152;-73
2021/09/20 07:31:59;;;;;;;3.70;2.78;;;;;;;13.11;59.97;100959.91;8719551;33;20545;-73
2021/09/20 07:37:03;;;;;;;7.35;3.10;;;;;;;13.10;60.25;100964.47;8718944;33;20764;-73
2021/09/20 07:42:08;;;;;;;5.65;3.15;;;;;;;13.07;59.72;100964.72;8719391;33;20237;-73
2021/09/20 07:47:13;;;;;;;5.35;2.80;;;;;;;13.27;58.62;100973.84;8718836;33;20420;-73
2021/09/20 07:52:16;;;;;;;8.95;2.53;;;;;;;13.51;55.75;100970.13;8719467;33;20172;-72
2021/09/20 07:57:19;;;;;;;4.25;2.80;;;;;;;13.66;55.45;100974.25;8718090;33;20180;-73
2021/09/20 08:02:23;;;;;;;4.63;2.70;;;;;;;13.65;54.52;100984.16;8719004;33;20235;-73
2021/09/20 08:07:27;;;;;;;3.22;2.45;;;;;;;13.51;52.32;100978.22;8717173;33;20332;-73
2021/09/20 08:12:30;;;;;;;4.35;2.13;;;;;;;13.96;52.44;100980.69;8718858;33;20184;-72
2021/09/20 08:17:35;;;;;;;2.30;1.90;;;;;;;13.94;51.17;100981.69;8716569;33;20196;-72
2021/09/20 08:22:38;;;;;;;3.90;2.25;;;;;;;13.97;50.22;100972.47;8718687;33;20199;-72
2021/09/20 08:27:41;;;;;;;2.30;1.90;;;;;;;13.74;49.55;100992.47;8671372;33;20182;-73
2021/09/20 08:32:46;;;;;;;3.42;1.95;;;;;;;14.10;49.82;100993.88;8660947;33;20168;-73
2021/09/20 08:37:50;;;;;;;1.98;1.67;;;;;;;14.40;47.72;100990.38;8659835;33;20188;-73
2021/09/20 08:42:53;;;;;;;2.95;1.60;;;;;;;14.62;48.30;101000.16;8660019;33;20619;-73
2021/09/20 08:48:00;;;;;;;2.58;1.92;;;;;;;14.68;46.83;101004.16;8659495;33;20210;-73
2021/09/20 08:53:05;;;;;;;2.20;1.63;;;;;;;14.61;46.63;101009.25;8659711;33;20224;-73
2021/09/20 08:58:08;;;;;;;2.58;1.80;;;;;;;14.87;47.04;101017.75;8660171;33;20195;-73
2021/09/20 09:03:13;;;;;;;2.28;1.50;;;;;;;15.04;45.87;101022.50;8652987;33;20716;-73
2021/09/20 09:08:18;;;;;;;2.83;2.22;;;;;;;15.34;44.97;101020.75;8605593;33;20281;-73
2021/09/20 09:13:33;;;;;;;2.70;1.48;;;;;;;15.79;44.52;101036.44;8601946;33;20130;-72
2021/09/20 09:19:00;;;;;;;1.60;1.27;;;;;;;15.75;41.08;101034.19;8602129;33;20690;-73
2021/09/20 09:24:07;;;;;;;6.15;1.90;;;;;;;16.08;42.24;101033.75;8598798;33;20185;-73
2021/09/20 09:29:15;;;;;;;3.20;1.42;;;;;;;16.38;39.63;101040.00;8599125;33;20196;-73
2021/09/20 09:34:24;;;;;;;3.80;1.48;;;;;;;17.15;37.46;101038.00;8599237;33;20192;-73
2021/09/20 09:39:29;;;;;;;1.80;1.30;;;;;;;15.70;39.70;101040.88;8600915;33;20180;-73
2021/09/20 09:44:35;;;;;;;1.55;1.40;;;;;;;14.87;40.57;101044.81;8601333;33;20420;-73
2021/09/20 09:49:39;;;;;;;3.38;1.50;;;;;;;14.87;42.54;101044.81;8601099;33;20141;-73
2021/09/20 09:54:43;;;;;;;4.18;1.60;;;;;;;14.99;42.08;101046.41;8600948;33;20177;-73
2021/09/20 09:59:56;;;;;;;2.97;1.85;;;;;;;15.23;41.33;101045.22;8610485;33;20256;-73
2021/09/20 10:05:03;;;;;;;1.60;1.30;;;;;;;15.38;39.95;101049.25;8612559;33;20183;-72
2021/09/20 10:10:10;;;;;;;1.88;1.52;;;;;;;15.59;40.57;101059.13;8659462;33;20245;-75
2021/09/20 10:15:17;;;;;;;1.98;1.60;;;;;;;15.57;40.44;101050.28;8657650;33;20184;-74
2021/09/20 10:20:24;;;;;;;1.80;1.70;;;;;;;15.59;41.58;101053.72;8607270;33;20889;-73
2021/09/20 10:25:30;;;;;;;2.17;1.80;;;;;;;15.30;42.42;101054.47;8633588;33;20134;-73
2021/09/20 10:30:36;;;;;;;2.28;1.50;;;;;;;14.95;42.42;101047.69;8627720;33;20149;-73
2021/09/20 10:35:42;;;;;;;1.98;1.40;;;;;;;14.85;42.70;101043.22;8628937;33;20732;-73
2021/09/20 10:41:07;;;;;;;4.30;1.95;;;;;;;15.11;43.14;101038.19;8626963;33;20728;-73
2021/09/20 10:46:21;;;;;;;2.60;1.63;;;;;;;15.21;42.68;101039.91;8632449;33;20193;-72
2021/09/20 10:51:31;;;;;;;2.35;1.70;;;;;;;15.45;42.57;101044.16;8631276;33;20352;-73
2021/09/20 10:56:34;;;;;;;2.05;1.65;;;;;;;15.46;42.40;101041.28;8626609;33;20146;-73
2021/09/20 11:01:39;;;;;;;2.90;2.30;;;;;;;15.04;43.10;101051.41;8631777;33;20145;-73
2021/09/20 11:07:06;;;;;;;2.70;1.90;;;;;;;15.27;44.09;101038.50;8631493;33;20821;-73
2021/09/20 11:12:16;;;;;;;2.30;1.63;;;;;;;15.59;43.58;101043.72;8636054;33;20176;-73
2021/09/20 11:17:29;;;;;;;3.00;1.55;;;;;;;15.84;42.92;101036.03;8610859;33;20655;-73
2021/09/20 11:22:34;;;;;;;2.72;1.90;;;;;;;15.76;42.27;101050.28;8602646;33;20157;-74
2021/09/20 11:27:40;;;;;;;3.45;2.20;;;;;;;14.81;42.87;101051.63;8603248;33;20219;-74
2021/09/20 11:32:47;;;;;;;4.13;1.90;;;;;;;14.67;44.12;101051.09;8603555;33;20447;-74
2021/09/20 11:37:52;;;;;;;2.97;1.85;;;;;;;14.33;43.54;101057.56;8601929;33;20181;-73
2021/09/20 11:43:06;;;;;;;2.80;2.05;;;;;;;14.72;43.86;101055.13;8602451;33;20486;-73
2021/09/20 11:48:20;;;;;;;2.85;1.90;;;;;;;15.11;43.18;101049.00;8602429;33;20282;-73
2021/09/20 11:53:24;;;;;;;3.08;1.95;;;;;;;15.32;42.72;101052.47;8602557;33;20273;-74
2021/09/20 11:58:27;;;;;;;3.90;2.08;;;;;;;14.87;43.75;101052.91;8602987;33;20472;-73
2021/09/20 12:03:30;;;;;;;3.25;2.30;;;;;;;14.64;44.17;101059.50;8603484;33;20627;-73
2021/09/20 12:08:35;;;;;;;2.42;2.13;;;;;;;14.35;45.82;101070.97;8603304;33;20672;-73
2021/09/20 12:13:38;;;;;;;4.93;2.42;;;;;;;14.19;46.05;101073.28;8617846;33;20149;-73
2021/09/20 12:18:41;;;;;;;3.88;2.42;;;;;;;14.55;46.32;101069.28;8630659;33;20269;-73
2021/09/20 12:23:49;;;;;;;2.80;2.50;;;;;;;14.64;45.78;101081.13;8625348;33;20898;-73
2021/09/20 12:28:56;;;;;;;4.80;2.70;;;;;;;14.83;45.52;101073.97;8631829;33;20544;-73
2021/09/20 12:34:01;;;;;;;2.85;2.58;;;;;;;15.04;44.32;101073.06;8616788;33;20189;-73
2021/09/20 12:39:13;;;;;;;3.97;2.80;;;;;;;15.42;43.74;101063.38;8602230;33;20197;-73
2021/09/20 12:44:32;;;;;;;3.58;2.78;;;;;;;15.44;43.72;101066.78;8601888;33;20154;-73
2021/09/20 12:49:36;;;;;;;3.38;3.10;;;;;;;15.39;42.45;101069.06;8603575;33;20275;-73
2021/09/20 12:54:49;;;;;;;3.83;2.85;;;;;;;15.62;42.40;101077.78;8604271;33;20148;-73
2021/09/20 13:00:01;;;;;;;3.22;2.72;;;;;;;17.59;40.65;101076.19;8601782;33;20150;-74
2021/09/20 13:05:07;;;;;;;4.15;3.13;;;;;;;19.24;36.05;101069.94;8601072;33;20821;-74
2021/09/20 13:10:16;;;;;;;2.75;2.50;;;;;;;19.19;35.73;101076.88;8601220;33;20756;-74
2021/09/20 13:15:21;;;;;;;3.10;2.58;;;;;;;17.88;37.71;101079.53;8601367;33;20277;-74
2021/09/20 13:20:27;;;;;;;3.45;2.53;;;;;;;16.90;39.97;101088.38;8612501;33;21240;-74
2021/09/20 13:25:34;;;;;;;4.60;2.80;;;;;;;16.33;41.53;101082.97;8631789;33;20307;-72
2021/09/20 13:30:41;;;;;;;3.20;2.55;;;;;;;16.01;42.35;101094.91;8633648;33;20181;-72
2021/09/20 13:35:46;;;;;;;2.97;2.63;;;;;;;15.75;43.48;101100.06;8711783;33;20199;-73
2021/09/20 13:40:52;;;;;;;23.70;3.80;;;;;;;15.46;44.25;101100.00;8663680;33;21046;-72
2021/09/20 13:45:56;;;;;;;4.10;2.65;;;;;;;15.35;44.27;101105.53;8657267;33;20192;-73
2021/09/20 13:51:00;;;;;;;5.32;2.58;;;;;;;15.24;44.28;101114.56;8671399;33;20211;-73
2021/09/20 13:56:05;;;;;;;4.05;2.85;;;;;;;15.27;44.32;101117.84;8660546;33;20177;-73
2021/09/20 14:01:08;;;;;;;3.90;2.30;;;;;;;15.34;43.34;101103.78;8688270;33;20192;-73
2021/09/20 14:06:12;;;;;;;3.83;2.22;;;;;;;15.30;43.04;101114.00;8688802;33;20196;-73
2021/09/20 14:11:16;;;;;;;2.55;2.35;;;;;;;15.01;43.25;101111.22;8681593;33;20188;-73
2021/09/20 14:16:21;;;;;;;3.35;1.90;;;;;;;15.12;43.91;101118.38;8665603;33;20177;-73
2021/09/20 14:21:24;;;;;;;4.13;2.25;;;;;;;15.29;44.12;101125.00;8699389;33;21484;-73
2021/09/20 14:26:28;;;;;;;2.33;1.90;;;;;;;15.26;43.62;101124.25;8720098;33;20640;-73
2021/09/20 14:31:32;;;;;;;3.60;2.78;;;;;;;15.51;44.28;101108.56;8720365;33;20194;-73
2021/09/20 14:36:36;;;;;;;4.47;2.92;;;;;;;15.54;43.81;101104.72;8719535;33;20152;-73
2021/09/20 14:41:40;;;;;;;3.40;2.75;;;;;;;15.48;43.74;101108.84;8719830;33;20141;-73
2021/09/20 14:46:43;;;;;;;3.15;2.63;;;;;;;15.47;44.62;101123.38;8719279;33;20226;-73
2021/09/20 14:51:46;;;;;;;4.38;2.88;;;;;;;15.41;45.63;101115.78;8719853;33;21984;-73
2021/09/20 14:56:51;;;;;;;5.78;3.28;;;;;;;15.30;45.81;101122.13;8716554;33;20184;-73
2021/09/20 15:01:54;;;;;;;4.07;3.03;;;;;;;15.10;46.64;101123.06;8671998;33;20253;-73
2021/09/20 15:06:58;;;;;;;4.22;2.70;;;;;;;14.93;47.03;101124.56;8673070;33;20903;-73
2021/09/20 15:12:03;;;;;;;3.80;2.67;;;;;;;14.95;46.30;101134.25;8660790;33;20238;-74
2021/09/20 15:17:06;;;;;;;3.65;2.67;;;;;;;14.99;46.72;101137.53;8660154;33;20191;-74
2021/09/20 15:22:09;;;;;;;4.47;2.55;;;;;;;14.96;46.78;101130.53;8660651;33;20206;-73
2021/09/20 15:27:14;;;;;;;2.55;2.35;;;;;;;15.01;47.02;101131.00;8667081;33;21248;-73
2021/09/20 15:32:18;;;;;;;4.32;2.63;;;;;;;15.09;46.99;101130.34;8684542;33;20148;-73
2021/09/20 15:37:21;;;;;;;4.43;2.50;;;;;;;15.26;46.65;101134.25;8689237;33;20187;-72
2021/09/20 15:42:25;;;;;;;4.43;2.53;;;;;;;15.31;46.15;101131.13;8678852;33;20196;-72
2021/09/20 15:47:28;;;;;;;3.95;2.20;;;;;;;15.36;46.54;101129.75;8688414;33;21055;-72
2021/09/20 15:52:31;;;;;;;4.68;2.30;;;;;;;14.79;47.91;101137.44;8705858;33;20669;-72
2021/09/20 15:57:36;;;;;;;6.22;2.70;;;;;;;14.29;49.07;101149.84;8718045;33;20936;-73
2021/09/20 16:02:40;;;;;;;2.67;2.30;;;;;;;14.35;48.93;101160.16;8718438;33;20206;-73
2021/09/20 16:07:44;;;;;;;3.65;2.40;;;;;;;14.51;49.24;101176.81;8717765;33;20853;-72
2021/09/20 16:12:49;;;;;;;2.97;2.00;;;;;;;14.75;48.91;101165.72;8717586;33;20195;-72
2021/09/20 16:17:52;;;;;;;3.78;2.10;;;;;;;15.03;48.12;101157.94;8717204;33;20609;-72
2021/09/20 16:22:57;;;;;;;2.67;2.13;;;;;;;15.73;46.19;101160.78;8718119;33;20519;-72
2021/09/20 16:28:01;;;;;;;2.83;2.00;;;;;;;16.29;45.27;101154.72;8716788;33;20183;-72
2021/09/20 16:33:04;;;;;;;2.80;1.98;;;;;;;15.69;46.00;101174.59;8717430;33;20666;-72
2021/09/20 16:38:08;;;;;;;3.45;2.03;;;;;;;14.80;47.96;101186.97;8718066;33;20215;-73
2021/09/20 16:43:12;;;;;;;2.35;2.00;;;;;;;14.32;50.16;101200.97;8715925;33;20228;-73
2021/09/20 16:48:15;;;;;;;3.15;2.25;;;;;;;13.96;51.26;101211.16;8716534;33;20328;-73
2021/09/20 16:53:19;;;;;;;3.47;2.30;;;;;;;13.74;51.85;101211.16;8716155;33;20160;-73
2021/09/20 16:58:23;;;;;;;4.15;2.47;;;;;;;13.58;53.09;101214.28;8716872;33;20245;-73
2021/09/20 17:03:26;;;;;;;5.45;2.40;;;;;;;13.37;55.37;101222.25;8717341;33;20252;-73
2021/09/20 17:08:30;;;;;;;3.65;2.05;;;;;;;13.27;54.90;101231.03;8716853;33;20279;-73
2021/09/20 17:13:35;;;;;;;6.72;2.85;;;;;;;13.21;55.50;101228.81;8716721;33;20260;-73
2021/09/20 17:18:37;;;;;;;3.47;2.40;;;;;;;13.09;56.38;101232.47;8716606;33;20183;-73
2021/09/20 17:23:41;;;;;;;5.35;2.33;;;;;;;12.98;55.85;101227.94;8715822;33;20176;-73
2021/09/20 17:28:45;;;;;;;4.18;2.65;;;;;;;12.94;55.76;101226.44;8714181;33;20183;-73
2021/09/20 17:33:48;;;;;;;2.55;2.33;;;;;;;12.92;55.92;101232.94;8714583;33;20200;-73
2021/09/20 17:38:51;;;;;;;4.80;2.90;;;;;;;12.81;55.85;101229.25;8714715;33;20756;-73
2021/09/20 17:44:00;;;;;;;5.30;3.05;;;;;;;12.74;56.03;101240.59;8716144;33;20190;-73
2021/09/20 17:49:05;;;;;;;4.28;3.10;;;;;;;12.73;56.70;101249.69;8715999;33;20495;-75
2021/09/20 17:54:08;;;;;;;5.07;2.67;;;;;;;12.69;56.78;101253.56;8715432;33;20544;-74
2021/09/20 17:59:13;;;;;;;5.80;2.72;;;;;;;12.67;58.07;101267.19;8716545;33;20155;-74
2021/09/20 18:04:16;;;;;;;3.05;2.47;;;;;;;12.55;58.26;101262.72;8716749;33;20175;-73
2021/09/20 18:09:19;;;;;;;5.82;3.22;;;;;;;12.54;57.75;101263.69;8702451;33;20198;-73
2021/09/20 18:14:24;;;;;;;3.35;2.47;;;;;;;12.50;57.72;101271.13;8686077;33;20699;-74
2021/09/20 18:19:27;;;;;;;3.45;2.70;;;;;;;12.48;58.11;101278.50;8700390;33;20187;-73
2021/09/20 18:24:30;;;;;;;4.95;3.08;;;;;;;12.45;59.08;101283.22;8683649;33;20795;-73
2021/09/20 18:29:35;;;;;;;3.75;3.00;;;;;;;12.33;59.56;101291.25;8680417;33;20994;-74
2021/09/20 18:34:38;;;;;;;4.00;3.22;;;;;;;12.30;59.17;101291.50;8685012;33;20187;-73
2021/09/20 18:39:41;;;;;;;6.10;3.78;;;;;;;12.26;59.32;101297.19;8685658;33;20577;-74
2021/09/20 18:44:46;;;;;;;4.78;3.45;;;;;;;12.18;60.16;101300.47;8684958;33;20180;-73
2021/09/20 18:49:49;;;;;;;4.35;3.13;;;;;;;12.14;59.96;101315.09;8683962;33;20470;-74
2021/09/20 18:54:53;;;;;;;4.05;3.25;;;;;;;12.11;61.01;101324.28;8654582;33;20763;-74
2021/09/20 18:59:59;;;;;;;5.45;3.70;;;;;;;12.11;61.30;101329.66;8657371;33;20455;-74
2021/09/20 19:05:02;;;;;;;7.30;3.00;;;;;;;12.06;61.62;101326.44;8671293;33;20860;-73
2021/09/20 19:10:07;;;;;;;4.68;3.60;;;;;;;12.01;61.55;101339.38;8720044;33;20763;-74
2021/09/20 19:15:14;;;;;;;4.47;3.28;;;;;;;11.98;61.59;101339.59;8696209;33;20724;-73
2021/09/20 19:20:20;;;;;;;5.78;3.30;;;;;;;11.97;62.14;101332.50;8661498;33;20233;-74
2021/09/20 19:25:25;;;;;;;4.32;3.05;;;;;;;11.87;61.83;101342.19;8675253;33;20264;-74
2021/09/20 19:30:30;;;;;;;3.67;2.78;;;;;;;11.86;61.98;101362.03;8724425;33;20183;-73
2021/09/20 19:35:33;;;;;;;4.50;3.22;;;;;;;11.79;62.25;101358.88;8718597;33;20975;-74
2021/09/20 19:40:36;;;;;;;5.18;2.85;;;;;;;11.79;61.84;101366.97;8666587;33;20153;-75
2021/09/20 19:45:42;;;;;;;5.00;3.17;;;;;;;11.78;62.37;101370.63;8660354;33;20181;-75
2021/09/20 19:50:45;;;;;;;4.18;3.00;;;;;;;11.75;62.56;101378.06;8660664;33;20206;-72
2021/09/20 19:55:48;;;;;;;4.53;2.90;;;;;;;11.74;62.53;101382.59;8663935;33;20187;-73
2021/09/20 20:00:52;;;;;;;5.40;3.10;;;;;;;11.70;63.16;101375.69;8686242;33;20188;-74
2021/09/20 20:05:56;;;;;;;5.32;3.38;;;;;;;11.64;63.17;101378.81;8687454;33;21080;-73
2021/09/20 20:10:59;;;;;;;4.47;3.70;;;;;;;11.66;63.32;101380.44;8688190;33;20206;-74
2021/09/20 20:16:05;;;;;;;5.60;3.30;;;;;;;11.67;63.55;101392.06;8689585;33;20133;-74
2021/09/20 20:21:08;;;;;;;4.03;3.08;;;;;;;11.62;64.01;101392.38;8686687;33;20148;-73
2021/09/20 20:26:13;;;;;;;7.10;4.25;;;;;;;11.65;63.19;101394.00;8677554;33;20180;-74
2021/09/20 20:31:20;;;;;;;7.28;4.63;;;;;;;11.63;63.25;101396.81;8672700;33;20210;-74
2021/09/20 20:36:24;;;;;;;9.30;4.85;;;;;;;11.47;63.00;101406.91;8686281;33;20590;-75
2021/09/20 20:41:27;;;;;;;7.85;5.03;;;;;;;11.38;63.47;101410.22;8665070;33;20243;-74
2021/09/20 20:46:31;;;;;;;6.65;4.80;;;;;;;11.34;63.78;101414.09;8654353;33;20184;-74
2021/09/20 20:51:35;;;;;;;6.75;4.07;;;;;;;11.24;64.74;101436.25;8662685;33;20195;-74
2021/09/20 20:56:41;;;;;;;5.35;3.85;;;;;;;11.18;65.08;101443.84;8658937;33;20266;-74
2021/09/20 21:01:45;;;;;;;7.97;5.20;;;;;;;11.15;65.27;101447.59;8659700;33;20223;-74
2021/09/20 21:06:48;;;;;;;5.82;3.90;;;;;;;11.19;65.49;101432.09;8671252;33;20178;-74
2021/09/20 21:11:52;;;;;;;6.88;4.10;;;;;;;11.31;65.88;101438.50;8687193;33;20154;-74
2021/09/20 21:16:56;;;;;;;5.28;4.43;;;;;;;11.32;65.99;101433.00;8685692;33;20184;-73
2021/09/20 21:21:59;;;;;;;6.13;4.05;;;;;;;11.33;66.18;101442.81;8672611;33;21104;-74
2021/09/20 21:27:02;;;;;;;5.63;4.07;;;;;;;11.27;66.36;101436.03;8658125;33;21082;-74
2021/09/20 21:32:07;;;;;;;8.98;4.03;;;;;;;11.30;66.29;101434.97;8659167;33;20179;-74
2021/09/20 21:37:10;;;;;;;5.70;3.95;;;;;;;11.31;66.63;101442.06;8658240;33;20180;-74
2021/09/20 21:42:13;;;;;;;6.80;3.72;;;;;;;11.28;66.73;101445.81;8658694;33;20287;-74
2021/09/20 21:47:17;;;;;;;8.20;4.22;;;;;;;11.23;67.17;101437.19;8658001;33;20187;-74
2021/09/20 21:52:20;;;;;;;9.50;4.20;;;;;;;11.26;66.67;101450.44;8658132;33;20137;-74
2021/09/20 21:57:23;;;;;;;6.30;4.28;;;;;;;11.28;66.87;101443.13;8657205;33;20169;-73
2021/09/20 22:02:28;;;;;;;6.75;4.15;;;;;;;11.28;66.49;101443.13;8658391;33;20625;-74
2021/09/20 22:07:31;;;;;;;5.93;4.18;;;;;;;11.22;66.68;101440.84;8657416;33;20184;-74
2021/09/20 22:12:34;;;;;;;7.15;4.22;;;;;;;11.12;66.97;101447.81;8656318;33;20527;-73
2021/09/20 22:17:39;;;;;;;7.93;4.15;;;;;;;11.05;67.53;101465.25;8656910;33;20180;-73
2021/09/20 22:22:42;;;;;;;7.53;4.45;;;;;;;10.98;67.77;101464.81;8657335;33;20185;-73
2021/09/20 22:27:45;;;;;;;5.28;3.80;;;;;;;11.05;67.72;101468.84;8656427;33;20272;-74
2021/09/20 22:32:49;;;;;;;7.25;3.80;;;;;;;11.09;67.19;101465.94;8656406;33;20216;-72
2021/09/20 22:37:52;;;;;;;8.75;3.58;;;;;;;11.12;67.23;101482.75;8657721;33;20185;-73
2021/09/20 22:43:16;;;;;;;5.57;3.88;;;;;;;11.03;67.61;101470.75;8659732;33;20944;-73
2021/09/20 22:48:24;;;;;;;8.73;3.75;;;;;;;10.98;68.25;101472.03;8661556;33;21389;-73
2021/09/20 22:53:28;;;;;;;6.90;4.22;;;;;;;10.96;68.48;101479.31;8689417;33;20257;-74
2021/09/20 22:58:31;;;;;;;6.65;3.70;;;;;;;10.90;68.85;101475.22;8719595;33;20142;-73
2021/09/20 23:03:36;;;;;;;5.18;4.10;;;;;;;10.90;69.04;101477.91;8718708;33;20136;-73
2021/09/20 23:08:39;;;;;;;6.28;4.50;;;;;;;10.84;69.38;101486.38;8719069;33;20226;-73
2021/09/20 23:13:41;;;;;;;6.45;4.30;;;;;;;10.80;69.76;101493.75;8718936;33;20194;-74
2021/09/20 23:18:46;;;;;;;6.78;4.18;;;;;;;10.61;70.04;101504.84;8719087;33;20700;-73
2021/09/20 23:23:49;;;;;;;6.97;4.47;;;;;;;10.67;69.95;101502.69;8716674;33;20195;-73
2021/09/20 23:28:52;;;;;;;7.72;4.43;;;;;;;10.81;69.96;101500.00;8718677;33;20265;-73
2021/09/20 23:33:56;;;;;;;10.50;4.68;;;;;;;10.86;69.82;101500.59;8718248;33;20516;-73